Time;durP1;ratioP1;P1;durP2;ratioP2;P2;SDS_P1;SDS_P2;PMS_P1;PMS_P2;Temp;Humidity;BMP_temperature;BMP_pressure;BME280_temperature;BME280_humidity;BME280_pressure;Samples;Min_cycle;Max_cycle;Signal;HPM_P1;HPM_P2
2020/12/01 00:01:21;;;;;;;49.88;34.70;;;;;;;9.80;27.95;95054.31;5077742;28;20044;-61
2020/12/01 00:03:48;;;;;;;52.72;35.55;;;;;;;9.06;28.36;95051.47;5083526;28;20044;-63
2020/12/01 00:06:15;;;;;;;51.88;35.15;;;;;;;8.92;28.50;95051.22;5097981;28;20052;-60
2020/12/01 00:08:42;;;;;;;56.88;38.00;;;;;;;8.89;28.70;95059.56;5097748;28;20052;-59
2020/12/01 00:11:14;;;;;;;57.40;36.42;;;;;;;8.81;29.24;95060.03;5097505;28;20055;-60
2020/12/01 00:13:42;;;;;;;52.28;33.70;;;;;;;9.22;29.09;95056.44;5097817;28;20040;-59
2020/12/01 00:16:13;;;;;;;45.15;31.88;;;;;;;9.31;28.97;95053.31;5097469;28;20059;-61
2020/12/01 00:18:40;;;;;;;47.58;32.95;;;;;;;9.10;28.53;95053.28;5097626;28;20470;-65
2020/12/01 00:21:13;;;;;;;50.22;31.55;;;;;;;8.76;28.51;95068.63;5097662;28;20055;-61
2020/12/01 00:23:40;;;;;;;45.08;29.33;;;;;;;8.96;29.24;95062.69;5097701;28;20098;-67
2020/12/01 00:26:08;;;;;;;39.85;26.95;;;;;;;9.75;28.35;95049.13;5097139;28;20044;-67
2020/12/01 00:28:35;;;;;;;39.78;26.55;;;;;;;9.91;27.83;95046.47;5097202;28;20050;-62
2020/12/01 00:31:03;;;;;;;35.08;23.98;;;;;;;9.67;27.42;95054.88;5083123;28;20056;-65
2020/12/01 00:33:30;;;;;;;33.67;22.92;;;;;;;9.58;28.17;95043.38;5076694;28;20475;-58
2020/12/01 00:35:57;;;;;;;34.25;22.77;;;;;;;9.52;27.30;95052.28;5076854;28;20056;-58
2020/12/01 00:38:24;;;;;;;33.80;22.70;;;;;;;9.25;27.92;95050.72;5076782;28;20037;-58
2020/12/01 00:40:52;;;;;;;32.65;21.77;;;;;;;9.71;28.43;95048.09;5077043;28;20041;-59
2020/12/01 00:43:19;;;;;;;33.65;22.27;;;;;;;9.32;28.15;95039.22;5076794;28;20056;-58
2020/12/01 00:45:46;;;;;;;33.55;22.70;;;;;;;9.09;28.07;95043.91;5076542;28;20051;-64
2020/12/01 00:48:14;;;;;;;33.42;21.92;;;;;;;9.23;28.16;95042.38;5076421;28;20045;-58
2020/12/01 00:50:42;;;;;;;34.28;23.05;;;;;;;9.09;28.17;95038.69;5075608;28;20451;-60
2020/12/01 00:53:10;;;;;;;51.92;34.17;;;;;;;9.00;28.57;95037.66;5075637;28;20482;-59
2020/12/01 00:55:37;;;;;;;58.20;35.63;;;;;;;9.89;27.29;95044.91;5076362;28;20056;-60
2020/12/01 00:58:05;;;;;;;53.33;34.47;;;;;;;9.68;27.12;95045.22;5075482;28;20052;-66
2020/12/01 01:00:37;;;;;;;58.70;37.47;;;;;;;9.83;27.05;95043.34;5075351;28;20332;-62
2020/12/01 01:03:12;;;;;;;44.00;29.95;;;;;;;10.18;27.29;95041.69;5074423;28;20048;-67
2020/12/01 01:05:40;;;;;;;38.83;26.23;;;;;;;10.80;26.39;95040.41;5075690;28;20063;-67
2020/12/01 01:08:07;;;;;;;38.55;26.80;;;;;;;9.86;27.57;95040.19;5075641;28;20056;-67
2020/12/01 01:10:34;;;;;;;35.47;25.10;;;;;;;9.63;28.04;95025.13;5075883;28;20075;-66
2020/12/01 01:13:03;;;;;;;40.83;25.77;;;;;;;9.45;27.61;95031.66;5076288;28;20044;-66
2020/12/01 01:15:34;;;;;;;44.40;29.58;;;;;;;9.30;27.38;95025.66;5074836;28;20052;-65
2020/12/01 01:18:02;;;;;;;44.42;29.95;;;;;;;9.11;27.99;95028.03;5076010;28;20044;-65
2020/12/01 01:20:30;;;;;;;41.42;29.77;;;;;;;9.40;27.26;95018.63;5075868;28;20044;-67
2020/12/01 01:22:57;;;;;;;40.17;26.83;;;;;;;9.55;27.58;95023.03;5076035;28;20063;-66
2020/12/01 01:25:25;;;;;;;41.42;28.10;;;;;;;9.12;27.81;95025.16;5075925;28;20056;-67
2020/12/01 01:27:52;;;;;;;40.78;27.85;;;;;;;8.82;27.92;95010.25;5075891;28;20075;-65
2020/12/01 01:30:22;;;;;;;40.67;26.67;;;;;;;8.84;28.22;95012.59;5075970;28;20447;-65
2020/12/01 01:32:49;;;;;;;35.92;25.15;;;;;;;8.64;28.21;95008.91;5075773;28;20075;-62
2020/12/01 01:35:16;;;;;;;34.67;22.88;;;;;;;9.04;27.69;95007.41;5074912;28;20044;-65
2020/12/01 01:37:44;;;;;;;50.05;31.45;;;;;;;8.78;28.06;95014.41;5075801;28;20055;-60
2020/12/01 01:40:24;;;;;;;38.53;25.40;;;;;;;8.83;28.26;95006.59;5075829;28;20435;-60
2020/12/01 01:42:51;;;;;;;37.95;24.27;;;;;;;8.64;28.18;95014.13;5075731;28;20044;-63
2020/12/01 01:45:38;;;;;;;34.70;23.10;;;;;;;8.56;28.73;95012.00;5075372;28;20045;-65
2020/12/01 01:48:30;;;;;;;63.38;37.05;;;;;;;8.65;29.27;95013.09;5075355;28;20053;-65
2020/12/01 01:51:04;;;;;;;54.65;32.03;;;;;;;8.89;28.48;95005.56;5074715;28;20056;-64
2020/12/01 01:53:34;;;;;;;51.75;32.00;;;;;;;8.74;28.77;95004.75;5074389;28;20053;-67
2020/12/01 01:56:05;;;;;;;52.13;33.15;;;;;;;8.86;28.83;94994.88;5074293;28;20045;-65
2020/12/01 01:58:38;;;;;;;115.63;63.47;;;;;;;8.81;28.88;94992.25;5074427;28;20036;-67
2020/12/01 02:01:09;;;;;;;72.60;42.05;;;;;;;9.07;29.19;95001.66;5057462;28;20052;-65
2020/12/01 02:03:40;;;;;;;57.40;34.38;;;;;;;9.28;28.69;95002.44;5079842;28;20054;-64
2020/12/01 02:06:22;;;;;;;45.90;30.17;;;;;;;9.51;28.42;94988.06;5079219;28;20048;-67
2020/12/01 02:09:05;;;;;;;48.05;29.45;;;;;;;9.86;27.50;94987.19;5075410;28;20048;-66
2020/12/01 02:11:34;;;;;;;33.88;23.00;;;;;;;9.20;27.18;94990.72;5075401;28;20044;-60
2020/12/01 02:14:12;;;;;;;48.88;31.15;;;;;;;9.14;28.06;94996.19;5073980;28;20052;-64
2020/12/01 02:16:52;;;;;;;45.45;29.15;;;;;;;9.28;28.34;94992.78;5074974;28;20471;-66
2020/12/01 02:19:24;;;;;;;36.35;23.55;;;;;;;9.50;28.99;94997.72;5075210;28;20048;-63
2020/12/01 02:21:52;;;;;;;48.40;29.88;;;;;;;9.76;27.29;94995.84;5075325;28;20489;-64
2020/12/01 02:24:21;;;;;;;47.80;30.40;;;;;;;9.77;26.81;94988.78;5074343;28;20064;-67
2020/12/01 02:26:56;;;;;;;39.45;26.58;;;;;;;9.50;27.71;94994.34;5073084;28;20346;-67
2020/12/01 02:29:34;;;;;;;39.00;24.80;;;;;;;9.38;26.73;94999.84;5075066;28;20057;-67
2020/12/01 02:32:03;;;;;;;31.40;21.42;;;;;;;8.82;28.65;94994.59;5075247;28;20049;-68
2020/12/01 02:34:38;;;;;;;34.60;22.40;;;;;;;8.64;28.08;94995.88;5061633;28;20051;-66
2020/12/01 02:37:07;;;;;;;53.70;35.00;;;;;;;8.87;28.42;94992.00;5053977;28;20051;-66
2020/12/01 02:39:34;;;;;;;62.90;43.17;;;;;;;9.08;28.21;95002.44;5055039;28;20056;-66
2020/12/01 02:42:06;;;;;;;48.63;33.30;;;;;;;9.09;28.48;94996.19;5055111;28;20447;-65
2020/12/01 02:44:33;;;;;;;38.30;26.65;;;;;;;9.37;28.71;94989.63;5053705;28;20060;-64
2020/12/01 02:47:03;;;;;;;32.95;23.67;;;;;;;9.50;28.76;94989.09;5074811;28;20051;-65
2020/12/01 02:49:30;;;;;;;35.38;24.00;;;;;;;9.59;27.54;94995.34;5074853;28;20371;-66
2020/12/01 02:51:58;;;;;;;29.20;20.33;;;;;;;9.92;28.69;94993.19;5074993;28;20055;-62
2020/12/01 02:54:25;;;;;;;34.75;24.00;;;;;;;9.46;27.80;94985.47;5074999;28;20048;-68
2020/12/01 02:56:52;;;;;;;33.90;22.80;;;;;;;9.66;28.25;94977.59;5074843;28;20041;-59
2020/12/01 02:59:19;;;;;;;33.90;22.73;;;;;;;10.45;25.34;94979.41;5061178;28;20044;-61
2020/12/01 03:01:46;;;;;;;33.38;23.25;;;;;;;9.47;26.61;94971.38;5054887;28;20049;-61
2020/12/01 03:04:13;;;;;;;31.40;21.92;;;;;;;10.05;28.23;94967.28;5054620;28;20045;-63
2020/12/01 03:06:40;;;;;;;35.22;23.23;;;;;;;9.38;26.55;94980.78;5054430;28;20060;-60
2020/12/01 03:09:10;;;;;;;33.22;22.83;;;;;;;8.96;27.43;94977.41;5054729;28;20056;-66
2020/12/01 03:11:37;;;;;;;34.22;23.40;;;;;;;9.08;28.09;94977.13;5054778;28;20478;-63
2020/12/01 03:14:04;;;;;;;35.13;22.27;;;;;;;9.23;27.46;94971.13;5054827;28;20399;-63
2020/12/01 03:16:32;;;;;;;33.40;22.63;;;;;;;9.28;28.12;94977.13;5054383;28;20051;-65
2020/12/01 03:18:59;;;;;;;28.73;20.58;;;;;;;9.37;28.08;94974.78;5054623;28;20333;-67
2020/12/01 03:21:26;;;;;;;31.67;21.98;;;;;;;8.67;27.59;94968.53;5054627;28;20375;-64
2020/12/01 03:23:54;;;;;;;32.47;22.00;;;;;;;8.46;28.23;94975.53;5054669;28;20056;-59
2020/12/01 03:26:21;;;;;;;31.87;21.77;;;;;;;8.70;27.55;94977.66;5055447;28;20056;-63
2020/12/01 03:28:48;;;;;;;31.63;21.50;;;;;;;8.38;28.05;94981.25;5057302;28;20060;-66
2020/12/01 03:31:18;;;;;;;36.93;23.03;;;;;;;8.24;28.92;94993.91;5058324;28;20048;-64
2020/12/01 03:33:46;;;;;;;36.30;23.87;;;;;;;8.33;27.87;94989.03;5063846;28;20048;-63
2020/12/01 03:36:14;;;;;;;37.77;25.40;;;;;;;8.59;27.97;94980.25;5077805;28;20051;-59
2020/12/01 03:38:41;;;;;;;37.05;25.45;;;;;;;8.45;27.51;94989.59;5078195;28;20051;-58
2020/12/01 03:41:08;;;;;;;42.70;27.80;;;;;;;7.99;28.17;94997.22;5077983;28;20055;-61
2020/12/01 03:43:35;;;;;;;47.27;31.37;;;;;;;8.50;27.86;94992.19;5077728;28;20048;-66
2020/12/01 03:46:04;;;;;;;40.40;27.97;;;;;;;8.61;28.38;94988.59;5077793;28;20051;-61
2020/12/01 03:48:31;;;;;;;41.67;30.60;;;;;;;8.63;28.19;94985.72;5076766;28;20044;-64
2020/12/01 03:50:58;;;;;;;47.97;33.83;;;;;;;8.57;28.45;94987.50;5077977;28;20378;-63
2020/12/01 03:53:26;;;;;;;77.75;48.17;;;;;;;8.47;28.83;94991.94;5077779;28;20052;-63
2020/12/01 03:55:53;;;;;;;85.45;51.50;;;;;;;9.98;27.15;94995.53;5077588;28;20053;-65
2020/12/01 03:58:20;;;;;;;45.20;31.00;;;;;;;10.84;25.94;94986.47;5060185;28;20048;-62
2020/12/01 04:00:47;;;;;;;38.08;26.75;;;;;;;10.64;26.06;94986.59;5057788;28;20056;-62
2020/12/01 04:03:15;;;;;;;41.75;28.15;;;;;;;9.35;27.21;94984.69;5057342;28;20045;-63
2020/12/01 04:05:42;;;;;;;43.33;28.92;;;;;;;8.72;27.44;94988.59;5057353;28;20367;-64
2020/12/01 04:08:10;;;;;;;41.13;27.48;;;;;;;8.38;27.58;94993.47;5057465;28;20056;-55
2020/12/01 04:10:38;;;;;;;40.22;26.83;;;;;;;8.29;27.74;94988.72;5057475;28;20041;-58
2020/12/01 04:13:05;;;;;;;45.50;30.77;;;;;;;8.00;28.75;94990.97;5057243;28;20071;-61
2020/12/01 04:15:32;;;;;;;46.90;31.23;;;;;;;7.95;28.15;94988.34;5057090;28;20044;-66
2020/12/01 04:17:59;;;;;;;48.27;33.37;;;;;;;7.79;28.09;94991.91;5057343;28;20049;-65
2020/12/01 04:20:26;;;;;;;54.87;37.37;;;;;;;7.62;28.36;94993.91;5057426;28;20049;-66
2020/12/01 04:22:54;;;;;;;64.17;41.47;;;;;;;7.66;28.01;94987.94;5057281;28;20049;-63
2020/12/01 04:25:23;;;;;;;56.43;38.00;;;;;;;7.55;29.13;94985.56;5057230;28;20364;-64
2020/12/01 04:27:51;;;;;;;63.97;42.77;;;;;;;7.28;28.03;94986.41;5056981;28;20056;-64
2020/12/01 04:30:19;;;;;;;63.23;40.50;;;;;;;7.44;28.85;94984.69;5056411;28;20045;-62
2020/12/01 04:32:46;;;;;;;64.97;41.77;;;;;;;7.21;29.88;94990.25;5056853;28;20490;-64
2020/12/01 04:35:14;;;;;;;59.77;38.90;;;;;;;7.42;28.26;94995.34;5055902;28;20049;-61
2020/12/01 04:37:41;;;;;;;75.13;47.53;;;;;;;7.45;29.02;95001.09;5056267;28;20053;-61
2020/12/01 04:40:10;;;;;;;74.33;46.37;;;;;;;7.47;28.93;95001.63;5056989;28;20045;-57
2020/12/01 04:42:47;;;;;;;63.63;40.00;;;;;;;7.22;29.25;95003.00;5057147;28;20049;-64
2020/12/01 04:45:15;;;;;;;66.83;42.27;;;;;;;7.57;28.84;94993.88;5055943;28;20048;-57
2020/12/01 04:48:02;;;;;;;101.67;62.90;;;;;;;7.61;28.43;94989.75;5056441;28;20068;-61
2020/12/01 04:50:42;;;;;;;124.10;74.77;;;;;;;7.51;28.64;94985.25;5055777;28;20047;-64
2020/12/01 04:54:02;;;;;;;124.80;75.83;;;;;;;7.48;28.58;94990.19;5055670;28;20072;-59
2020/12/01 04:56:35;;;;;;;139.67;83.13;;;;;;;7.21;29.37;94985.84;5024021;28;20056;-59
2020/12/01 04:59:21;;;;;;;119.53;76.25;;;;;;;7.80;28.51;94990.88;5056563;28;20049;-63
2020/12/01 05:02:22;;;;;;;120.73;75.10;;;;;;;7.96;27.86;94992.50;5056617;28;20059;-65
2020/12/01 05:05:20;;;;;;;132.50;83.83;;;;;;;8.44;27.51;94993.22;5063704;28;20055;-60
2020/12/01 05:08:23;;;;;;;120.80;75.70;;;;;;;8.90;27.26;94990.72;5056106;28;20048;-62
2020/12/01 05:10:51;;;;;;;125.40;78.57;;;;;;;8.62;27.79;94987.56;4973632;28;20083;-60
2020/12/01 05:13:32;;;;;;;125.77;76.60;;;;;;;8.86;28.09;94980.03;5055346;28;20060;-61
2020/12/01 05:16:16;;;;;;;118.07;73.60;;;;;;;8.12;27.66;94984.78;5055946;28;20768;-64
2020/12/01 05:18:43;;;;;;;102.50;62.67;;;;;;;8.34;27.97;94972.38;5054888;28;20049;-63
2020/12/01 05:21:11;;;;;;;103.17;65.47;;;;;;;7.69;28.07;94973.66;5064753;28;20045;-57
2020/12/01 05:23:44;;;;;;;101.27;61.40;;;;;;;7.58;28.03;94975.41;5065678;28;20055;-58
2020/12/01 05:26:15;;;;;;;84.27;50.90;;;;;;;7.81;29.00;94969.03;5068343;28;20063;-56
2020/12/01 05:29:02;;;;;;;103.13;67.90;;;;;;;7.68;28.43;94969.47;5058951;28;20056;-62
2020/12/01 05:31:41;;;;;;;89.33;55.40;;;;;;;7.76;28.57;94982.00;5070850;28;20064;-61
2020/12/01 05:34:18;;;;;;;86.67;53.63;;;;;;;7.49;28.25;94979.50;5064180;28;20053;-58
2020/12/01 05:36:46;;;;;;;97.80;61.90;;;;;;;7.29;27.35;94985.41;5063976;28;20055;-56
2020/12/01 05:39:19;;;;;;;103.67;61.13;;;;;;;7.19;28.27;94989.72;5064708;28;20048;-56
2020/12/01 05:41:47;;;;;;;;;;;;;;;7.01;28.58;94990.88;5065458;28;20056;-55
2020/12/01 05:44:17;;;;;;;106.57;62.50;;;;;;;7.06;28.10;94983.16;5063491;28;19913;-59
2020/12/01 05:47:10;;;;;;;112.77;63.60;;;;;;;7.08;28.69;94991.47;5064097;28;20041;-56
2020/12/01 05:49:50;;;;;;;115.88;66.32;;;;;;;7.21;27.76;94988.44;5064000;28;20044;-54
2020/12/01 05:52:42;;;;;;;120.00;70.60;;;;;;;6.92;28.60;95005.38;5064672;28;20048;-55
2020/12/01 05:55:24;;;;;;;117.03;67.50;;;;;;;7.03;28.66;94989.63;5066220;28;20060;-58
2020/12/01 05:58:08;;;;;;;111.03;65.03;;;;;;;6.88;28.88;94996.50;5063293;28;20048;-56
2020/12/01 06:00:36;;;;;;;;;;;;;;;7.06;29.07;94989.13;5064971;28;20363;-55
2020/12/01 06:03:30;;;;;;;114.47;69.27;;;;;;;7.21;28.88;94996.25;5072576;28;19913;-64
2020/12/01 06:05:58;;;;;;;120.10;70.13;;;;;;;7.47;28.79;94993.81;5029686;28;20059;-60
2020/12/01 06:08:37;;;;;;;112.53;67.80;;;;;;;7.40;29.12;94988.84;5055403;28;20045;-58
2020/12/01 06:11:29;;;;;;;99.13;58.40;;;;;;;7.67;29.06;94983.53;5055369;28;20470;-59
2020/12/01 06:14:02;;;;;;;86.90;55.23;;;;;;;7.67;29.08;94983.53;5053693;28;20058;-59
2020/12/01 06:16:49;;;;;;;104.33;64.47;;;;;;;7.48;29.71;94977.16;5053947;28;20052;-59
2020/12/01 06:19:27;;;;;;;103.77;61.17;;;;;;;7.51;29.85;94987.06;5054258;28;20033;-64
2020/12/01 06:22:09;;;;;;;124.77;76.43;;;;;;;7.92;28.89;94980.25;5054034;28;20439;-66
2020/12/01 06:25:10;;;;;;;126.53;79.53;;;;;;;7.49;29.22;94978.72;5015660;28;20054;-59
2020/12/01 06:27:52;;;;;;;134.80;82.57;;;;;;;7.43;29.14;94983.91;5014184;28;20499;-60
2020/12/01 06:30:58;;;;;;;140.37;86.23;;;;;;;7.78;28.75;94985.13;5015485;28;20061;-60
2020/12/01 06:34:00;;;;;;;139.37;86.00;;;;;;;7.75;29.33;94980.44;4997350;28;20057;-61
2020/12/01 06:37:03;;;;;;;135.20;85.10;;;;;;;7.43;30.00;94989.13;5012086;28;20049;-57
2020/12/01 06:39:44;;;;;;;130.90;82.20;;;;;;;8.16;28.81;94993.66;5034057;28;20038;-58
2020/12/01 06:42:24;;;;;;;113.00;69.40;;;;;;;7.95;29.09;94996.16;5024283;28;20437;-59
2020/12/01 06:45:04;;;;;;;109.87;68.63;;;;;;;8.10;28.58;94986.84;5015392;28;20050;-60
2020/12/01 06:47:33;;;;;;;96.97;61.77;;;;;;;8.20;28.78;94998.09;5014872;28;20387;-62
2020/12/01 06:50:06;;;;;;;87.10;58.57;;;;;;;8.38;28.21;94996.88;5014332;28;20049;-65
2020/12/01 06:52:33;;;;;;;99.95;62.50;;;;;;;8.17;28.76;94993.38;5014307;28;20060;-62
2020/12/01 06:55:00;;;;;;;93.63;59.53;;;;;;;8.36;28.29;94996.34;5014306;28;20469;-59
2020/12/01 06:57:29;;;;;;;99.30;61.53;;;;;;;8.10;28.83;94998.06;5014896;28;20062;-56
2020/12/01 06:59:56;;;;;;;98.43;64.17;;;;;;;8.30;28.69;94992.09;5015561;28;20053;-57
2020/12/01 07:02:32;;;;;;;112.10;72.20;;;;;;;8.11;28.47;94994.41;5019200;28;20050;-58
2020/12/01 07:05:07;;;;;;;110.73;73.07;;;;;;;7.96;28.92;94987.31;5034675;28;20052;-60
2020/12/01 07:07:36;;;;;;;105.50;69.83;;;;;;;8.16;28.65;94988.44;5038418;28;20060;-57
2020/12/01 07:10:21;;;;;;;100.43;64.27;;;;;;;8.07;28.52;94993.34;5038767;28;20057;-58
2020/12/01 07:12:55;;;;;;;103.23;63.47;;;;;;;7.84;29.21;94989.34;5038438;28;20460;-57
2020/12/01 07:15:35;;;;;;;98.17;59.60;;;;;;;7.99;28.81;94991.22;5037660;28;20041;-58
2020/12/01 07:18:21;;;;;;;101.83;60.63;;;;;;;8.00;28.65;94990.97;5038183;28;20060;-61
2020/12/01 07:21:14;;;;;;;96.40;58.17;;;;;;;8.04;29.17;94992.03;5038481;28;20064;-53
2020/12/01 07:24:09;;;;;;;102.95;58.08;;;;;;;8.25;29.30;94979.06;5062402;28;20040;-58
2020/12/01 07:27:23;;;;;;;111.50;63.23;;;;;;;8.47;29.15;94982.28;5077996;28;20107;-57
2020/12/01 07:30:00;;;;;;;122.68;69.78;;;;;;;8.10;29.42;94986.84;5034076;28;20051;-58
2020/12/01 07:32:32;;;;;;;107.00;58.67;;;;;;;8.32;29.16;94984.81;5077412;28;20079;-59
2020/12/01 07:35:17;;;;;;;120.70;69.37;;;;;;;8.19;30.00;94977.50;5060925;28;20045;-57
2020/12/01 07:37:47;;;;;;;121.03;64.43;;;;;;;8.10;30.11;94977.22;5068541;28;20048;-57
2020/12/01 07:40:26;;;;;;;123.53;70.03;;;;;;;8.17;30.18;94971.75;5078143;28;20041;-56
2020/12/01 07:43:03;;;;;;;125.10;69.23;;;;;;;8.17;29.68;94982.97;5077919;28;20410;-57
2020/12/01 07:45:31;;;;;;;118.70;67.93;;;;;;;8.27;29.93;94971.78;5078063;28;20052;-52
2020/12/01 07:48:00;;;;;;;126.37;70.73;;;;;;;8.46;29.72;94972.91;5077651;28;20060;-56
2020/12/01 07:50:28;;;;;;;126.67;73.03;;;;;;;8.26;29.72;94965.00;5078039;28;20048;-58
2020/12/01 07:53:09;;;;;;;137.43;82.17;;;;;;;8.24;29.53;94962.66;5077892;28;20052;-59
2020/12/01 07:56:05;;;;;;;117.97;64.37;;;;;;;8.12;30.30;94953.53;5078075;28;20063;-59
2020/12/01 07:58:32;;;;;;;118.50;63.73;;;;;;;8.36;30.08;94965.09;5049694;28;20049;-58
2020/12/01 08:01:03;;;;;;;107.07;60.42;;;;;;;8.70;29.83;94959.41;5057854;28;20444;-53
2020/12/01 08:03:36;;;;;;;123.03;70.25;;;;;;;8.83;29.57;94969.31;5062197;28;20052;-61
2020/12/01 08:06:10;;;;;;;123.97;72.72;;;;;;;8.79;29.58;94961.22;5076622;28;20049;-59
2020/12/01 08:08:41;;;;;;;141.20;80.10;;;;;;;8.72;29.28;94957.31;5077478;28;20435;-61
2020/12/01 08:11:13;;;;;;;134.45;82.22;;;;;;;9.11;29.14;94960.19;5077265;28;20059;-59
2020/12/01 08:13:41;;;;;;;137.20;85.47;;;;;;;9.09;28.54;94959.66;5067300;28;20049;-61
2020/12/01 08:16:15;;;;;;;151.25;90.50;;;;;;;9.36;28.29;94961.97;5058980;28;20098;-58
2020/12/01 08:18:48;;;;;;;149.38;90.78;;;;;;;9.75;27.82;94960.34;5055984;28;20052;-62
2020/12/01 08:21:21;;;;;;;150.10;87.07;;;;;;;10.24;27.92;94962.28;5056370;28;20044;-58
2020/12/01 08:23:50;;;;;;;143.20;84.47;;;;;;;10.33;27.87;94965.09;5057387;28;20076;-61
2020/12/01 08:26:17;;;;;;;151.30;96.47;;;;;;;10.19;27.64;94954.44;5069968;28;20454;-59
2020/12/01 08:28:47;;;;;;;133.10;82.90;;;;;;;10.25;27.56;94952.59;5077104;28;20455;-59
2020/12/01 08:31:40;;;;;;;132.50;81.32;;;;;;;10.40;27.55;94974.19;5077181;28;20040;-58
2020/12/01 08:34:16;;;;;;;;;;;;;;;10.23;28.17;94965.94;5067361;28;20044;-52
2020/12/01 08:37:12;;;;;;;147.05;91.53;;;;;;;10.14;27.75;94967.50;5056787;28;19917;-57
2020/12/01 08:39:55;;;;;;;141.23;84.07;;;;;;;10.32;27.83;94959.09;5057009;28;20053;-60
2020/12/01 08:42:52;;;;;;;144.13;88.20;;;;;;;10.78;27.27;94961.44;5057070;28;20056;-61
2020/12/01 08:45:35;;;;;;;139.82;85.03;;;;;;;10.66;26.85;94966.19;5056925;28;20040;-59
2020/12/01 08:48:05;;;;;;;140.48;87.65;;;;;;;10.83;27.26;94958.78;5056583;28;20048;-58
2020/12/01 08:50:38;;;;;;;148.80;91.75;;;;;;;10.24;27.89;94953.66;5055790;28;20044;-60
2020/12/01 08:53:16;;;;;;;144.02;85.45;;;;;;;10.10;27.83;94964.63;5056802;28;20052;-58
2020/12/01 08:55:43;;;;;;;144.20;82.97;;;;;;;10.01;28.10;94952.41;5056698;28;20056;-60
2020/12/01 08:58:25;;;;;;;140.82;86.63;;;;;;;10.26;27.79;94956.78;5056473;28;20470;-61
2020/12/01 09:01:04;;;;;;;145.07;90.55;;;;;;;10.30;27.41;94949.94;5056684;28;20041;-58
2020/12/01 09:03:33;;;;;;;165.57;101.60;;;;;;;10.25;27.83;94948.16;5060170;28;20048;-62
2020/12/01 09:06:01;;;;;;;179.55;107.90;;;;;;;10.22;27.87;94940.84;5076454;28;20048;-63
2020/12/01 09:14:13;;;;;;;182.85;110.80;;;;;;;10.72;27.37;94941.59;5055542;28;20044;-59
2020/12/01 09:22:26;;;;;;;161.10;102.97;;;;;;;11.42;26.61;94918.47;5055998;28;20053;-58
2020/12/01 09:25:14;;;;;;;146.15;94.13;;;;;;;11.09;26.95;94905.19;5055241;28;20325;-58
2020/12/01 09:27:41;;;;;;;150.45;92.15;;;;;;;11.45;25.89;94907.47;5055731;28;20048;-57
2020/12/01 09:30:35;;;;;;;151.73;96.72;;;;;;;11.70;25.82;94903.78;5056083;28;20380;-59
2020/12/01 09:33:04;;;;;;;163.30;103.88;;;;;;;12.34;25.36;94892.00;5050043;28;20363;-60
2020/12/01 09:35:31;;;;;;;178.93;115.72;;;;;;;12.77;24.46;94887.44;5055854;28;20052;-60
2020/12/01 09:37:58;;;;;;;180.60;117.70;;;;;;;12.45;24.94;94887.38;5055608;28;20058;-62
2020/12/01 09:40:27;;;;;;;176.38;116.18;;;;;;;12.44;24.91;94885.81;5056010;28;20075;-59
2020/12/01 09:42:59;;;;;;;164.73;108.95;;;;;;;11.94;25.45;94888.06;5055945;28;20060;-59
2020/12/01 09:45:29;;;;;;;158.77;100.47;;;;;;;12.56;24.84;94883.56;5055812;28;20048;-62
2020/12/01 09:48:12;;;;;;;149.95;99.88;;;;;;;13.09;24.40;94880.59;5055446;28;20048;-61
2020/12/01 09:50:40;;;;;;;149.85;99.88;;;;;;;12.89;24.57;94877.25;5055708;28;20049;-60
2020/12/01 09:54:09;;;;;;;152.75;102.20;;;;;;;13.14;24.15;94873.41;5055682;28;20048;-60
2020/12/01 10:17:41;;;;;;;139.77;94.80;;;;;;;13.57;23.71;94855.59;5010901;28;20060;-58
2020/12/01 10:20:46;;;;;;;136.27;93.97;;;;;;;13.94;23.60;94848.53;5055385;28;20052;-62
2020/12/01 10:26:00;;;;;;;136.90;91.68;;;;;;;14.28;23.02;94855.16;5055142;28;20060;-62
2020/12/01 10:34:21;;;;;;;122.18;85.68;;;;;;;14.62;22.55;94837.06;5054971;28;20049;-61
2020/12/01 10:36:51;;;;;;;121.03;84.93;;;;;;;14.59;22.81;94827.16;5054637;28;20363;-62
2020/12/01 10:39:19;;;;;;;121.20;84.30;;;;;;;14.70;23.28;94822.41;5054856;28;20056;-59
2020/12/01 10:41:46;;;;;;;127.20;83.35;;;;;;;14.17;23.05;94815.97;5055221;28;20049;-66
2020/12/01 10:44:13;;;;;;;125.60;85.05;;;;;;;14.09;22.87;94816.69;5055107;28;20056;-62
2020/12/01 10:46:44;;;;;;;124.60;85.95;;;;;;;14.40;23.27;94818.63;5054822;28;20056;-62
2020/12/01 10:49:11;;;;;;;121.72;82.30;;;;;;;14.62;22.49;94810.75;5074346;28;20443;-60
2020/12/01 10:51:38;;;;;;;119.20;79.43;;;;;;;14.91;22.63;94812.16;5075006;28;20056;-61
2020/12/01 10:54:05;;;;;;;114.10;81.07;;;;;;;14.66;22.53;94809.06;5074992;28;20045;-62
2020/12/01 10:56:32;;;;;;;115.57;79.60;;;;;;;14.96;22.59;94809.38;5074891;28;20049;-61
2020/12/01 10:59:00;;;;;;;125.10;83.72;;;;;;;14.95;22.33;94813.09;5074749;28;20048;-58
2020/12/01 11:01:27;;;;;;;115.25;82.75;;;;;;;14.65;22.47;94804.13;5074875;28;20052;-60
2020/12/01 11:03:54;;;;;;;116.15;79.32;;;;;;;14.83;22.40;94795.22;5067582;28;20055;-60
2020/12/01 11:06:21;;;;;;;113.07;78.20;;;;;;;14.85;22.64;94808.09;5054784;28;20049;-60
2020/12/01 11:08:48;;;;;;;118.70;79.28;;;;;;;14.98;22.04;94796.69;5054658;28;20049;-63
2020/12/01 11:11:19;;;;;;;114.03;79.40;;;;;;;14.74;22.50;94795.19;5054739;28;20053;-60
2020/12/01 11:13:46;;;;;;;111.97;78.30;;;;;;;15.06;22.11;94788.06;5054768;28;20047;-65
2020/12/01 11:16:13;;;;;;;111.32;74.68;;;;;;;14.63;22.68;94782.59;5054651;28;20049;-62
2020/12/01 11:18:41;;;;;;;116.07;75.88;;;;;;;15.04;22.66;94777.03;5054397;28;20045;-62
2020/12/01 11:21:08;;;;;;;112.55;74.88;;;;;;;14.77;22.42;94770.88;5054684;28;20045;-64
2020/12/01 11:23:35;;;;;;;110.97;75.00;;;;;;;15.00;22.51;94768.22;5054690;28;20491;-59
2020/12/01 11:26:02;;;;;;;116.43;76.82;;;;;;;14.77;22.39;94765.63;5054862;28;20128;-62
2020/12/01 11:28:29;;;;;;;114.70;78.63;;;;;;;15.01;22.43;94756.59;5054390;28;20378;-61
2020/12/01 11:30:56;;;;;;;129.82;87.88;;;;;;;14.62;22.69;94758.13;5054678;28;20041;-63
2020/12/01 11:33:24;;;;;;;127.85;86.38;;;;;;;14.86;23.05;94751.75;5057099;28;20053;-58
2020/12/01 11:35:51;;;;;;;120.60;80.63;;;;;;;14.97;22.86;94753.03;5074527;28;20044;-58
2020/12/01 11:38:18;;;;;;;129.20;84.38;;;;;;;14.72;22.86;94744.69;5073712;28;20048;-58
2020/12/01 11:40:45;;;;;;;124.15;83.95;;;;;;;14.58;23.74;94757.19;5074645;28;20044;-64
2020/12/01 11:43:12;;;;;;;133.82;86.05;;;;;;;14.65;23.38;94747.00;5057624;28;20049;-63
2020/12/01 11:45:39;;;;;;;124.00;84.88;;;;;;;14.35;23.56;94742.47;5054405;28;20064;-62
2020/12/01 11:48:06;;;;;;;138.90;91.00;;;;;;;14.39;23.49;94738.16;5056602;28;20063;-62
2020/12/01 11:50:33;;;;;;;138.98;89.63;;;;;;;14.53;23.27;94744.13;5057794;28;20327;-63
2020/12/01 11:53:00;;;;;;;134.20;91.00;;;;;;;14.63;23.70;94732.59;5058030;28;20052;-58
2020/12/01 11:55:27;;;;;;;147.55;100.05;;;;;;;14.51;23.55;94730.50;5057710;28;20067;-60
2020/12/01 11:57:54;;;;;;;148.70;106.15;;;;;;;13.91;24.42;94728.22;5057986;28;20053;-61
2020/12/01 12:00:24;;;;;;;128.68;87.68;;;;;;;14.20;23.54;94719.94;5057670;28;20037;-62
2020/12/01 12:02:51;;;;;;;133.85;91.78;;;;;;;14.18;24.45;94717.59;5057879;28;20114;-63
2020/12/01 12:05:19;;;;;;;133.02;90.50;;;;;;;14.05;23.93;94728.97;5076140;28;20375;-63
2020/12/01 12:07:46;;;;;;;131.48;90.90;;;;;;;14.16;24.44;94714.50;5077657;28;20048;-64
2020/12/01 12:10:13;;;;;;;123.05;83.20;;;;;;;14.06;24.77;94716.59;5062842;28;20048;-63
2020/12/01 12:12:40;;;;;;;124.53;85.72;;;;;;;13.80;24.58;94716.41;5057566;28;20367;-57
2020/12/01 12:15:07;;;;;;;126.43;86.85;;;;;;;13.98;24.84;94712.03;5057704;28;20053;-59
2020/12/01 12:17:34;;;;;;;111.13;73.35;;;;;;;13.93;24.40;94715.56;5057376;28;20472;-63
2020/12/01 12:20:01;;;;;;;112.13;76.85;;;;;;;14.12;24.62;94708.28;5057182;28;20056;-64
2020/12/01 12:22:28;;;;;;;117.30;78.15;;;;;;;14.04;24.75;94705.59;5057303;28;20052;-62
2020/12/01 12:24:55;;;;;;;121.43;81.88;;;;;;;14.12;24.56;94708.28;5057443;28;20045;-61
2020/12/01 12:27:23;;;;;;;114.32;77.20;;;;;;;14.15;24.88;94712.16;5057170;28;20041;-61